EZY89KA LPMA-EGKK
Flight info
| Callsign | EZY89KA |
|---|---|
| Flight time | 3h 23m |
| Altitude | 34000 |
| Route | DEGUN DCT RULET DCT GALPA DCT VABEM/N0430F360 DCT TUNAV DCT IBIDO DCT DEMOS DCT KORUL DCT FEJAC DCT JSY/N0423F340 DCT REVTU UP88 VASUX |
| Aircraft | A21N/M-SDE2E3FGHIJ1RWXYZ/LB1G1 |
Departure
| Time | 2026-05-07 20:50 |
|---|---|
| Airport | Cristiano Ronaldo International Airport (LPMA) |
Arrival
| Time | 2026-05-08 00:13 |
|---|---|
| Airport | London Gatwick Airport (EGKK) |
| Time | Latitude | Longitude | Altitude | Speed | Heading |
|---|---|---|---|---|---|
| 2026-05-07 20:07 | 32.69255 | -16.77787 | 178 ft | 0 kts | 136° |
| 2026-05-07 20:26 | 32.69255 | -16.77788 | 178 ft | 0 kts | 135° |
| 2026-05-07 20:29 | 32.69256 | -16.77788 | 178 ft | 0 kts | 135° |
| 2026-05-07 20:34 | 32.69260 | -16.77793 | 179 ft | 2 kts | 131° |
| 2026-05-07 20:35 | 32.69271 | -16.77808 | 177 ft | 2 kts | 129° |
| 2026-05-07 20:35 | 32.69281 | -16.77824 | 176 ft | 2 kts | 122° |
| 2026-05-07 20:35 | 32.69289 | -16.77842 | 174 ft | 2 kts | 109° |
| 2026-05-07 20:35 | 32.69292 | -16.77861 | 173 ft | 2 kts | 87° |
| 2026-05-07 20:36 | 32.69289 | -16.77879 | 172 ft | 1 kts | 76° |
| 2026-05-07 20:36 | 32.69289 | -16.77882 | 172 ft | 0 kts | 82° |
| 2026-05-07 20:39 | 32.69289 | -16.77875 | 172 ft | 1 kts | 82° |
| 2026-05-07 20:39 | 32.69299 | -16.77852 | 173 ft | 5 kts | 63° |
| 2026-05-07 20:39 | 32.69327 | -16.77814 | 173 ft | 7 kts | 48° |
| 2026-05-07 20:39 | 32.69366 | -16.77763 | 174 ft | 9 kts | 42° |
| 2026-05-07 20:40 | 32.69412 | -16.77712 | 174 ft | 10 kts | 43° |
| 2026-05-07 20:40 | 32.69462 | -16.77640 | 177 ft | 12 kts | 42° |
| 2026-05-07 20:40 | 32.69529 | -16.77563 | 179 ft | 14 kts | 46° |
| 2026-05-07 20:40 | 32.69601 | -16.77474 | 179 ft | 16 kts | 46° |
| 2026-05-07 20:41 | 32.69677 | -16.77381 | 173 ft | 14 kts | 46° |
| 2026-05-07 20:41 | 32.69748 | -16.77292 | 174 ft | 16 kts | 46° |
| 2026-05-07 20:41 | 32.69800 | -16.77226 | 178 ft | 0 kts | 48° |
| 2026-05-07 20:43 | 32.69806 | -16.77217 | 178 ft | 3 kts | 47° |
| 2026-05-07 20:43 | 32.69813 | -16.77209 | 179 ft | 0 kts | 47° |
| 2026-05-07 20:46 | 32.69818 | -16.77202 | 179 ft | 3 kts | 45° |
| 2026-05-07 20:46 | 32.69852 | -16.77190 | 181 ft | 7 kts | 352° |
| 2026-05-07 20:47 | 32.69911 | -16.77185 | 183 ft | 10 kts | 2° |
| 2026-05-07 20:47 | 32.69989 | -16.77180 | 185 ft | 13 kts | 7° |
| 2026-05-07 20:47 | 32.70069 | -16.77117 | 192 ft | 15 kts | 44° |
| 2026-05-07 20:47 | 32.70148 | -16.77022 | 185 ft | 17 kts | 45° |
| 2026-05-07 20:48 | 32.70238 | -16.76915 | 196 ft | 20 kts | 45° |
| 2026-05-07 20:48 | 32.70344 | -16.76788 | 197 ft | 23 kts | 45° |
| 2026-05-07 20:48 | 32.70467 | -16.76642 | 208 ft | 27 kts | 45° |
| 2026-05-07 20:48 | 32.70617 | -16.76501 | 211 ft | 26 kts | 13° |
| 2026-05-07 20:49 | 32.70650 | -16.76438 | 212 ft | 14 kts | 152° |
| 2026-05-07 20:49 | 32.70581 | -16.76520 | 204 ft | 16 kts | 233° |
| 2026-05-07 20:49 | 32.70509 | -16.76605 | 207 ft | 16 kts | 223° |
| 2026-05-07 20:49 | 32.70264 | -16.76923 | 192 ft | 90 kts | 229° |
| 2026-05-07 20:50 | 32.69651 | -16.77604 | 182 ft | 148 kts | 223° |
| 2026-05-07 20:50 | 32.68864 | -16.78471 | 616 ft | 157 kts | 225° |
| 2026-05-07 20:50 | 32.67982 | -16.79265 | 1186 ft | 167 kts | 201° |
| 2026-05-07 20:50 | 32.66800 | -16.79257 | 1818 ft | 175 kts | 173° |
| 2026-05-07 20:51 | 32.65603 | -16.78964 | 2538 ft | 176 kts | 174° |
| 2026-05-07 20:51 | 32.64393 | -16.78700 | 3249 ft | 177 kts | 175° |
| 2026-05-07 20:51 | 32.63107 | -16.78446 | 3696 ft | 198 kts | 175° |
| 2026-05-07 20:51 | 32.61688 | -16.78167 | 4201 ft | 216 kts | 174° |
| 2026-05-07 20:52 | 32.60292 | -16.77336 | 4730 ft | 239 kts | 142° |
| 2026-05-07 20:52 | 32.58924 | -16.76056 | 5083 ft | 262 kts | 146° |
| 2026-05-07 20:52 | 32.57737 | -16.74313 | 5531 ft | 284 kts | 113° |
| 2026-05-07 20:52 | 32.57455 | -16.71993 | 6244 ft | 289 kts | 81° |
| 2026-05-07 20:53 | 32.58110 | -16.69755 | 6986 ft | 289 kts | 59° |
| 2026-05-07 20:53 | 32.59092 | -16.67652 | 7775 ft | 293 kts | 57° |
| 2026-05-07 20:53 | 32.60085 | -16.65525 | 8564 ft | 297 kts | 58° |
| 2026-05-07 20:53 | 32.61065 | -16.63350 | 9377 ft | 301 kts | 59° |
| 2026-05-07 20:54 | 32.62039 | -16.61132 | 10141 ft | 307 kts | 59° |
| 2026-05-07 20:54 | 32.63047 | -16.58810 | 10532 ft | 326 kts | 59° |
| 2026-05-07 20:54 | 32.64109 | -16.56340 | 10870 ft | 345 kts | 59° |
| 2026-05-07 20:54 | 32.65396 | -16.53962 | 11421 ft | 348 kts | 44° |
| 2026-05-07 20:55 | 32.67133 | -16.51903 | 12151 ft | 351 kts | 38° |
| 2026-05-07 20:55 | 32.68901 | -16.49931 | 12859 ft | 355 kts | 37° |
| 2026-05-07 20:55 | 32.70709 | -16.47907 | 13600 ft | 360 kts | 37° |
| 2026-05-07 20:55 | 32.72539 | -16.45841 | 14243 ft | 365 kts | 37° |
| 2026-05-07 20:56 | 32.74390 | -16.43740 | 14868 ft | 370 kts | 37° |
| 2026-05-07 20:56 | 32.76262 | -16.41609 | 15485 ft | 375 kts | 37° |
| 2026-05-07 20:56 | 32.78160 | -16.39441 | 16102 ft | 381 kts | 37° |
| 2026-05-07 20:56 | 32.80081 | -16.37243 | 16707 ft | 386 kts | 37° |
| 2026-05-07 20:57 | 32.82024 | -16.35015 | 17312 ft | 391 kts | 37° |
| 2026-05-07 20:57 | 32.83990 | -16.32763 | 17918 ft | 395 kts | 37° |
| 2026-05-07 20:57 | 32.85983 | -16.30482 | 18480 ft | 400 kts | 37° |
| 2026-05-07 20:57 | 32.87995 | -16.28177 | 19039 ft | 403 kts | 37° |
| 2026-05-07 20:58 | 32.90019 | -16.25856 | 19619 ft | 405 kts | 37° |
| 2026-05-07 20:58 | 32.92051 | -16.23525 | 20191 ft | 407 kts | 37° |
| 2026-05-07 20:58 | 32.94095 | -16.21177 | 20769 ft | 409 kts | 37° |
| 2026-05-07 20:58 | 32.96147 | -16.18816 | 21329 ft | 411 kts | 36° |
| 2026-05-07 20:59 | 32.98207 | -16.16448 | 21882 ft | 413 kts | 36° |
| 2026-05-07 20:59 | 33.00282 | -16.14061 | 22444 ft | 416 kts | 36° |
| 2026-05-07 20:59 | 33.02367 | -16.11660 | 22998 ft | 418 kts | 36° |
| 2026-05-07 20:59 | 33.04459 | -16.09245 | 23539 ft | 420 kts | 36° |
| 2026-05-07 21:00 | 33.06562 | -16.06817 | 23982 ft | 422 kts | 36° |
| 2026-05-07 21:00 | 33.08682 | -16.04370 | 24417 ft | 425 kts | 36° |
| 2026-05-07 21:00 | 33.10809 | -16.01917 | 24842 ft | 427 kts | 36° |
| 2026-05-07 21:00 | 33.12952 | -15.99439 | 25262 ft | 430 kts | 36° |
| 2026-05-07 21:01 | 33.15103 | -15.96950 | 25670 ft | 432 kts | 36° |
| 2026-05-07 21:01 | 33.17266 | -15.94447 | 26073 ft | 435 kts | 36° |
| 2026-05-07 21:01 | 33.19446 | -15.91925 | 26461 ft | 437 kts | 36° |
| 2026-05-07 21:01 | 33.21630 | -15.89392 | 26844 ft | 439 kts | 36° |
| 2026-05-07 21:02 | 33.23829 | -15.86840 | 27203 ft | 442 kts | 36° |
| 2026-05-07 21:02 | 33.26043 | -15.84271 | 27578 ft | 444 kts | 36° |
| 2026-05-07 21:02 | 33.28258 | -15.81689 | 27935 ft | 447 kts | 37° |
| 2026-05-07 21:02 | 33.30487 | -15.79081 | 28289 ft | 449 kts | 37° |
| 2026-05-07 21:03 | 33.32728 | -15.76467 | 28630 ft | 451 kts | 37° |
| 2026-05-07 21:03 | 33.34952 | -15.73872 | 28966 ft | 454 kts | 37° |
| 2026-05-07 21:03 | 33.37241 | -15.71198 | 29291 ft | 456 kts | 37° |
| 2026-05-07 21:03 | 33.39517 | -15.68545 | 29618 ft | 458 kts | 37° |
| 2026-05-07 21:04 | 33.41828 | -15.65920 | 29929 ft | 457 kts | 33° |
| 2026-05-07 21:04 | 33.44299 | -15.63549 | 30199 ft | 455 kts | 29° |
| 2026-05-07 21:04 | 33.46863 | -15.61312 | 30426 ft | 457 kts | 28° |
| 2026-05-07 21:04 | 33.49444 | -15.59083 | 30650 ft | 460 kts | 28° |
| 2026-05-07 21:05 | 33.52004 | -15.56850 | 30872 ft | 463 kts | 29° |
| 2026-05-07 21:05 | 33.54614 | -15.54566 | 31092 ft | 466 kts | 29° |
| 2026-05-07 21:05 | 33.57225 | -15.52259 | 31359 ft | 468 kts | 29° |
| 2026-05-07 21:05 | 33.59850 | -15.49937 | 31624 ft | 469 kts | 29° |
| 2026-05-07 21:06 | 33.62482 | -15.47621 | 31896 ft | 470 kts | 29° |
| 2026-05-07 21:06 | 33.65113 | -15.45295 | 32157 ft | 471 kts | 30° |
| 2026-05-07 21:06 | 33.67752 | -15.42945 | 32413 ft | 472 kts | 30° |
| 2026-05-07 21:06 | 33.70389 | -15.40591 | 32680 ft | 473 kts | 30° |
| 2026-05-07 21:07 | 33.73038 | -15.38227 | 32943 ft | 474 kts | 30° |
| 2026-05-07 21:07 | 33.75683 | -15.35868 | 33170 ft | 475 kts | 30° |
| 2026-05-07 21:07 | 33.78345 | -15.33510 | 33421 ft | 475 kts | 30° |
| 2026-05-07 21:07 | 33.81012 | -15.31155 | 33667 ft | 476 kts | 30° |
| 2026-05-07 21:08 | 33.83678 | -15.28792 | 33897 ft | 477 kts | 30° |
| 2026-05-07 21:08 | 33.86348 | -15.26414 | 34009 ft | 477 kts | 30° |
| 2026-05-07 21:08 | 33.89010 | -15.24038 | 34006 ft | 476 kts | 30° |
| 2026-05-07 21:09 | 33.94326 | -15.19288 | 33976 ft | 476 kts | 31° |
| 2026-05-07 21:09 | 33.99646 | -15.14524 | 33977 ft | 477 kts | 31° |
| 2026-05-07 21:10 | 34.04966 | -15.09750 | 33966 ft | 477 kts | 31° |
| 2026-05-07 21:10 | 34.10288 | -15.04965 | 33969 ft | 477 kts | 31° |
| 2026-05-07 21:11 | 34.15615 | -15.00182 | 33968 ft | 477 kts | 31° |
| 2026-05-07 21:11 | 34.23603 | -14.92981 | 33964 ft | 478 kts | 31° |
| 2026-05-07 21:12 | 34.28490 | -14.87430 | 33963 ft | 485 kts | 41° |
| 2026-05-07 21:12 | 34.33142 | -14.81502 | 33969 ft | 486 kts | 41° |
| 2026-05-07 21:13 | 34.37809 | -14.75594 | 33964 ft | 485 kts | 40° |
| 2026-05-07 21:13 | 34.43098 | -14.70860 | 33973 ft | 471 kts | 22° |
| 2026-05-07 21:14 | 34.48908 | -14.67215 | 33970 ft | 470 kts | 21° |
| 2026-05-07 21:14 | 34.54714 | -14.63563 | 33965 ft | 471 kts | 21° |
| 2026-05-07 21:15 | 34.60558 | -14.59834 | 33963 ft | 471 kts | 21° |
| 2026-05-07 21:15 | 34.66319 | -14.56154 | 33962 ft | 471 kts | 22° |
| 2026-05-07 21:16 | 34.72158 | -14.52414 | 33960 ft | 471 kts | 22° |
| 2026-05-07 21:16 | 34.77954 | -14.48700 | 33955 ft | 472 kts | 22° |
| 2026-05-07 21:17 | 34.83720 | -14.44992 | 33962 ft | 472 kts | 22° |
| 2026-05-07 21:17 | 34.89530 | -14.41260 | 33956 ft | 472 kts | 22° |
| 2026-05-07 21:18 | 34.95344 | -14.37519 | 33958 ft | 473 kts | 23° |
| 2026-05-07 21:18 | 35.01168 | -14.33761 | 33958 ft | 474 kts | 23° |
| 2026-05-07 21:19 | 35.06995 | -14.29992 | 33953 ft | 474 kts | 23° |
| 2026-05-07 21:19 | 35.12826 | -14.26213 | 33952 ft | 475 kts | 24° |
| 2026-05-07 21:20 | 35.18674 | -14.22426 | 33954 ft | 476 kts | 24° |
| 2026-05-07 21:20 | 35.24524 | -14.18633 | 33949 ft | 476 kts | 24° |
| 2026-05-07 21:21 | 35.30376 | -14.14822 | 33948 ft | 477 kts | 24° |
| 2026-05-07 21:21 | 35.36244 | -14.11005 | 33950 ft | 478 kts | 24° |
| 2026-05-07 21:22 | 35.42120 | -14.07172 | 33958 ft | 479 kts | 25° |
| 2026-05-07 21:22 | 35.48007 | -14.03322 | 33956 ft | 479 kts | 25° |
| 2026-05-07 21:23 | 35.52900 | -14.00117 | 33944 ft | 480 kts | 25° |
| 2026-05-07 21:23 | 35.58790 | -13.96255 | 33949 ft | 481 kts | 25° |
| 2026-05-07 21:24 | 35.64694 | -13.92376 | 33949 ft | 481 kts | 25° |
| 2026-05-07 21:24 | 35.70594 | -13.88490 | 33949 ft | 482 kts | 25° |
| 2026-05-07 21:25 | 35.76517 | -13.84595 | 33944 ft | 482 kts | 26° |
| 2026-05-07 21:25 | 35.82433 | -13.80688 | 33946 ft | 483 kts | 26° |
| 2026-05-07 21:26 | 35.88360 | -13.76770 | 33951 ft | 484 kts | 26° |
| 2026-05-07 21:26 | 35.94298 | -13.72837 | 33953 ft | 485 kts | 26° |
| 2026-05-07 21:27 | 36.00244 | -13.68894 | 33949 ft | 485 kts | 27° |
| 2026-05-07 21:27 | 36.06191 | -13.64934 | 33947 ft | 486 kts | 27° |
| 2026-05-07 21:28 | 36.12150 | -13.60966 | 33953 ft | 487 kts | 27° |
| 2026-05-07 21:28 | 36.18116 | -13.56989 | 33951 ft | 487 kts | 27° |
| 2026-05-07 21:29 | 36.24087 | -13.53003 | 33945 ft | 488 kts | 27° |
| 2026-05-07 21:29 | 36.30057 | -13.49008 | 33947 ft | 488 kts | 27° |
| 2026-05-07 21:30 | 36.36035 | -13.44996 | 33950 ft | 489 kts | 28° |
| 2026-05-07 21:30 | 36.42025 | -13.40977 | 33950 ft | 489 kts | 28° |
| 2026-05-07 21:31 | 36.47976 | -13.36973 | 33944 ft | 490 kts | 28° |
| 2026-05-07 21:31 | 36.53967 | -13.32915 | 33948 ft | 491 kts | 28° |
| 2026-05-07 21:32 | 36.59960 | -13.28845 | 33949 ft | 491 kts | 28° |
| 2026-05-07 21:32 | 36.65973 | -13.24767 | 33947 ft | 492 kts | 28° |
| 2026-05-07 21:33 | 36.71985 | -13.20676 | 33950 ft | 493 kts | 28° |
| 2026-05-07 21:33 | 36.78027 | -13.16605 | 33947 ft | 494 kts | 28° |
| 2026-05-07 21:34 | 36.84077 | -13.12513 | 33949 ft | 495 kts | 29° |
| 2026-05-07 21:34 | 36.90126 | -13.08395 | 33948 ft | 495 kts | 29° |
| 2026-05-07 21:35 | 36.96175 | -13.04263 | 33947 ft | 496 kts | 30° |
| 2026-05-07 21:35 | 37.02238 | -13.00118 | 33948 ft | 497 kts | 30° |
| 2026-05-07 21:36 | 37.08311 | -12.95960 | 33942 ft | 498 kts | 30° |
| 2026-05-07 21:36 | 37.14388 | -12.91786 | 33942 ft | 499 kts | 30° |
| 2026-05-07 21:37 | 37.20468 | -12.87603 | 33947 ft | 499 kts | 30° |
| 2026-05-07 21:37 | 37.26563 | -12.83399 | 33940 ft | 500 kts | 30° |
| 2026-05-07 21:38 | 37.32651 | -12.79191 | 33941 ft | 500 kts | 30° |
| 2026-05-07 21:38 | 37.38750 | -12.74975 | 33941 ft | 501 kts | 30° |
| 2026-05-07 21:39 | 37.44819 | -12.70771 | 33938 ft | 501 kts | 30° |
| 2026-05-07 21:39 | 37.50924 | -12.66527 | 33946 ft | 502 kts | 30° |
| 2026-05-07 21:40 | 37.57030 | -12.62272 | 33950 ft | 502 kts | 30° |
| 2026-05-07 21:40 | 37.63145 | -12.58012 | 33946 ft | 502 kts | 31° |
| 2026-05-07 21:41 | 37.69255 | -12.53746 | 33948 ft | 502 kts | 31° |
| 2026-05-07 21:41 | 37.75377 | -12.49470 | 33940 ft | 502 kts | 31° |
| 2026-05-07 21:42 | 37.81482 | -12.45188 | 33941 ft | 502 kts | 31° |
| 2026-05-07 21:42 | 37.87585 | -12.40906 | 33936 ft | 501 kts | 31° |
| 2026-05-07 21:43 | 37.93674 | -12.36608 | 33935 ft | 501 kts | 31° |
| 2026-05-07 21:43 | 37.99757 | -12.32297 | 33940 ft | 500 kts | 31° |
| 2026-05-07 21:44 | 38.05841 | -12.28000 | 33945 ft | 500 kts | 31° |
| 2026-05-07 21:44 | 38.11909 | -12.23698 | 33940 ft | 499 kts | 32° |
| 2026-05-07 21:45 | 38.17963 | -12.19399 | 33943 ft | 499 kts | 31° |
| 2026-05-07 21:45 | 38.24020 | -12.15104 | 33941 ft | 498 kts | 32° |
| 2026-05-07 21:46 | 38.30061 | -12.10799 | 33941 ft | 497 kts | 32° |
| 2026-05-07 21:46 | 38.36098 | -12.06532 | 33939 ft | 496 kts | 32° |
| 2026-05-07 21:47 | 38.42125 | -12.02234 | 33940 ft | 496 kts | 32° |
| 2026-05-07 21:47 | 38.48100 | -11.97953 | 33940 ft | 495 kts | 32° |
| 2026-05-07 21:48 | 38.54097 | -11.93649 | 33940 ft | 495 kts | 32° |
| 2026-05-07 21:48 | 38.60092 | -11.89334 | 33936 ft | 494 kts | 32° |
| 2026-05-07 21:49 | 38.66084 | -11.85017 | 33939 ft | 494 kts | 32° |
| 2026-05-07 21:49 | 38.72057 | -11.80692 | 33936 ft | 493 kts | 32° |
| 2026-05-07 21:50 | 38.78078 | -11.76367 | 33939 ft | 492 kts | 32° |
| 2026-05-07 21:50 | 38.84039 | -11.72055 | 33938 ft | 492 kts | 32° |
| 2026-05-07 21:51 | 38.89958 | -11.67767 | 33936 ft | 492 kts | 32° |
| 2026-05-07 21:51 | 38.95912 | -11.63437 | 33937 ft | 491 kts | 32° |
| 2026-05-07 21:52 | 39.01851 | -11.59110 | 33936 ft | 491 kts | 32° |
| 2026-05-07 21:52 | 39.07798 | -11.54771 | 33937 ft | 491 kts | 32° |
| 2026-05-07 21:53 | 39.13727 | -11.50432 | 33936 ft | 490 kts | 32° |
| 2026-05-07 21:53 | 39.19657 | -11.46089 | 33937 ft | 490 kts | 32° |
| 2026-05-07 21:54 | 39.25578 | -11.41738 | 33939 ft | 490 kts | 32° |
| 2026-05-07 21:54 | 39.31489 | -11.37349 | 33939 ft | 490 kts | 32° |
| 2026-05-07 21:55 | 39.37411 | -11.32992 | 33939 ft | 490 kts | 32° |
| 2026-05-07 21:55 | 39.43318 | -11.28596 | 33943 ft | 490 kts | 32° |
| 2026-05-07 21:56 | 39.49232 | -11.24228 | 33941 ft | 490 kts | 32° |
| 2026-05-07 21:56 | 39.55141 | -11.19840 | 33939 ft | 489 kts | 32° |
| 2026-05-07 21:57 | 39.61061 | -11.15473 | 33931 ft | 489 kts | 31° |
| 2026-05-07 21:57 | 39.66981 | -11.11110 | 33932 ft | 489 kts | 31° |
| 2026-05-07 21:58 | 39.72884 | -11.06711 | 33933 ft | 489 kts | 32° |
| 2026-05-07 21:58 | 39.78779 | -11.02303 | 33933 ft | 489 kts | 32° |
| 2026-05-07 21:59 | 39.84637 | -10.97915 | 33932 ft | 489 kts | 32° |
| 2026-05-07 21:59 | 39.90525 | -10.93493 | 33932 ft | 489 kts | 31° |
| 2026-05-07 22:00 | 39.96419 | -10.89068 | 33925 ft | 489 kts | 31° |
| 2026-05-07 22:00 | 40.02297 | -10.84642 | 33932 ft | 488 kts | 31° |
| 2026-05-07 22:01 | 40.08179 | -10.80201 | 33928 ft | 487 kts | 31° |
| 2026-05-07 22:01 | 40.14033 | -10.75773 | 33922 ft | 487 kts | 31° |
| 2026-05-07 22:02 | 40.19888 | -10.71325 | 33975 ft | 487 kts | 31° |
| 2026-05-07 22:02 | 40.25732 | -10.66861 | 34033 ft | 486 kts | 31° |
| 2026-05-07 22:03 | 40.31553 | -10.62389 | 34098 ft | 485 kts | 31° |
| 2026-05-07 22:03 | 40.37365 | -10.57900 | 34169 ft | 484 kts | 31° |
| 2026-05-07 22:04 | 40.43136 | -10.53416 | 34258 ft | 479 kts | 31° |
| 2026-05-07 22:04 | 40.48824 | -10.48974 | 34352 ft | 478 kts | 31° |
| 2026-05-07 22:05 | 40.54579 | -10.44452 | 34475 ft | 483 kts | 31° |
| 2026-05-07 22:05 | 40.60337 | -10.39902 | 34587 ft | 483 kts | 32° |
| 2026-05-07 22:06 | 40.66090 | -10.35332 | 34721 ft | 483 kts | 32° |
| 2026-05-07 22:06 | 40.71835 | -10.30742 | 34851 ft | 481 kts | 32° |
| 2026-05-07 22:07 | 40.77499 | -10.26191 | 34982 ft | 473 kts | 32° |
| 2026-05-07 22:07 | 40.83155 | -10.21623 | 35128 ft | 480 kts | 32° |
| 2026-05-07 22:08 | 40.88865 | -10.16984 | 35282 ft | 483 kts | 32° |
| 2026-05-07 22:08 | 40.94589 | -10.12308 | 35443 ft | 484 kts | 32° |
| 2026-05-07 22:09 | 41.00310 | -10.07608 | 35597 ft | 485 kts | 32° |
| 2026-05-07 22:09 | 41.05028 | -10.03713 | 35738 ft | 476 kts | 32° |
| 2026-05-07 22:10 | 41.10633 | -9.99061 | 35903 ft | 477 kts | 32° |
| 2026-05-07 22:10 | 41.17202 | -9.93577 | 36115 ft | 482 kts | 32° |
| 2026-05-07 22:11 | 41.21964 | -9.89579 | 36273 ft | 485 kts | 32° |
| 2026-05-07 22:11 | 41.27686 | -9.84752 | 36462 ft | 489 kts | 32° |
| 2026-05-07 22:12 | 41.30555 | -9.82323 | 36570 ft | 488 kts | 32° |
| 2026-05-07 22:12 | 41.33397 | -9.79909 | 36658 ft | 483 kts | 32° |
| 2026-05-07 22:12 | 41.36217 | -9.77507 | 36768 ft | 480 kts | 32° |
| 2026-05-07 22:12 | 41.39034 | -9.75102 | 36883 ft | 481 kts | 32° |
| 2026-05-07 22:13 | 41.44676 | -9.70265 | 37090 ft | 483 kts | 32° |
| 2026-05-07 22:13 | 41.47329 | -9.67981 | 37191 ft | 484 kts | 32° |
| 2026-05-07 22:13 | 41.50155 | -9.65543 | 37305 ft | 485 kts | 32° |
| 2026-05-07 22:14 | 41.52989 | -9.63091 | 37423 ft | 485 kts | 32° |
| 2026-05-07 22:14 | 41.55825 | -9.60630 | 37534 ft | 486 kts | 32° |
| 2026-05-07 22:14 | 41.58648 | -9.58174 | 37654 ft | 486 kts | 32° |
| 2026-05-07 22:14 | 41.61481 | -9.55703 | 37772 ft | 486 kts | 32° |
| 2026-05-07 22:15 | 41.64312 | -9.53227 | 37898 ft | 486 kts | 32° |
| 2026-05-07 22:15 | 41.67140 | -9.50747 | 38019 ft | 486 kts | 32° |
| 2026-05-07 22:15 | 41.69966 | -9.48261 | 38150 ft | 486 kts | 32° |
| 2026-05-07 22:15 | 41.72792 | -9.45769 | 38271 ft | 487 kts | 32° |
| 2026-05-07 22:16 | 41.75619 | -9.43269 | 38407 ft | 487 kts | 32° |
| 2026-05-07 22:16 | 41.78441 | -9.40767 | 38537 ft | 487 kts | 32° |
| 2026-05-07 22:16 | 41.81269 | -9.38253 | 38647 ft | 488 kts | 33° |
| 2026-05-07 22:16 | 41.84100 | -9.35729 | 38757 ft | 488 kts | 33° |
| 2026-05-07 22:17 | 41.86922 | -9.33207 | 38869 ft | 489 kts | 33° |
| 2026-05-07 22:17 | 41.89752 | -9.30671 | 38971 ft | 489 kts | 33° |
| 2026-05-07 22:17 | 41.92577 | -9.28132 | 39091 ft | 489 kts | 33° |
| 2026-05-07 22:17 | 41.95401 | -9.25588 | 39202 ft | 489 kts | 33° |
| 2026-05-07 22:18 | 41.98223 | -9.23037 | 39324 ft | 488 kts | 33° |
| 2026-05-07 22:18 | 42.03845 | -9.17936 | 39561 ft | 486 kts | 33° |
| 2026-05-07 22:18 | 42.06634 | -9.15396 | 39673 ft | 484 kts | 33° |
| 2026-05-07 22:19 | 42.09419 | -9.12851 | 39797 ft | 482 kts | 33° |
| 2026-05-07 22:19 | 42.12184 | -9.10317 | 39920 ft | 480 kts | 33° |
| 2026-05-07 22:19 | 42.14948 | -9.07776 | 40042 ft | 481 kts | 33° |
| 2026-05-07 22:19 | 42.17710 | -9.05231 | 40177 ft | 480 kts | 33° |
| 2026-05-07 22:20 | 42.20465 | -9.02685 | 40298 ft | 481 kts | 33° |
| 2026-05-07 22:20 | 42.23223 | -9.00129 | 40439 ft | 481 kts | 33° |
| 2026-05-07 22:20 | 42.25973 | -8.97575 | 40566 ft | 481 kts | 33° |
| 2026-05-07 22:20 | 42.28736 | -8.95001 | 40700 ft | 482 kts | 33° |
| 2026-05-07 22:21 | 42.31493 | -8.92426 | 40839 ft | 482 kts | 33° |
| 2026-05-07 22:21 | 42.34243 | -8.89850 | 40976 ft | 482 kts | 33° |
| 2026-05-07 22:21 | 42.36998 | -8.87263 | 41126 ft | 481 kts | 33° |
| 2026-05-07 22:21 | 42.39746 | -8.84675 | 41245 ft | 481 kts | 33° |
| 2026-05-07 22:22 | 42.42490 | -8.82084 | 41390 ft | 481 kts | 33° |
| 2026-05-07 22:22 | 42.45226 | -8.79494 | 41528 ft | 480 kts | 33° |
| 2026-05-07 22:22 | 42.47962 | -8.76897 | 41665 ft | 480 kts | 33° |
| 2026-05-07 22:22 | 42.50651 | -8.74337 | 41803 ft | 479 kts | 33° |
| 2026-05-07 22:23 | 42.53412 | -8.71702 | 41948 ft | 479 kts | 33° |
| 2026-05-07 22:23 | 42.56115 | -8.69117 | 41563 ft | 486 kts | 33° |
| 2026-05-07 22:23 | 42.58876 | -8.66471 | 41289 ft | 485 kts | 33° |
| 2026-05-07 22:24 | 42.64360 | -8.61193 | 41398 ft | 480 kts | 33° |
| 2026-05-07 22:24 | 42.67074 | -8.58568 | 41551 ft | 478 kts | 33° |
| 2026-05-07 22:24 | 42.69778 | -8.55947 | 41698 ft | 478 kts | 33° |
| 2026-05-07 22:24 | 42.72481 | -8.53319 | 41800 ft | 477 kts | 34° |
| 2026-05-07 22:25 | 42.75186 | -8.50684 | 41945 ft | 477 kts | 34° |
| 2026-05-07 22:25 | 42.77908 | -8.48027 | 41652 ft | 484 kts | 34° |
| 2026-05-07 22:25 | 42.80649 | -8.45344 | 41574 ft | 486 kts | 34° |
| 2026-05-07 22:25 | 42.83387 | -8.42658 | 41729 ft | 483 kts | 34° |
| 2026-05-07 22:26 | 42.86102 | -8.39986 | 41894 ft | 481 kts | 34° |
| 2026-05-07 22:26 | 42.88828 | -8.37298 | 41754 ft | 487 kts | 34° |
| 2026-05-07 22:26 | 42.91569 | -8.34588 | 41600 ft | 486 kts | 34° |
| 2026-05-07 22:26 | 42.94294 | -8.31887 | 41727 ft | 483 kts | 34° |
| 2026-05-07 22:27 | 42.97006 | -8.29190 | 41889 ft | 481 kts | 34° |
| 2026-05-07 22:27 | 42.99714 | -8.26492 | 41753 ft | 485 kts | 34° |
| 2026-05-07 22:27 | 43.02437 | -8.23772 | 41465 ft | 486 kts | 34° |
| 2026-05-07 22:28 | 43.07878 | -8.18315 | 41621 ft | 483 kts | 34° |
| 2026-05-07 22:28 | 43.10461 | -8.15713 | 41800 ft | 480 kts | 34° |
| 2026-05-07 22:28 | 43.13085 | -8.13064 | 41939 ft | 480 kts | 34° |
| 2026-05-07 22:28 | 43.15793 | -8.10325 | 41630 ft | 485 kts | 34° |
| 2026-05-07 22:29 | 43.18507 | -8.07572 | 41615 ft | 485 kts | 34° |
| 2026-05-07 22:29 | 43.21198 | -8.04834 | 41786 ft | 481 kts | 34° |
| 2026-05-07 22:29 | 43.23883 | -8.02095 | 41944 ft | 480 kts | 34° |
| 2026-05-07 22:29 | 43.26576 | -7.99343 | 41623 ft | 484 kts | 34° |
| 2026-05-07 22:30 | 43.29280 | -7.96572 | 41516 ft | 484 kts | 34° |
| 2026-05-07 22:30 | 43.31964 | -7.93814 | 41672 ft | 481 kts | 35° |
| 2026-05-07 22:30 | 43.34628 | -7.91068 | 41889 ft | 478 kts | 35° |
| 2026-05-07 22:30 | 43.37296 | -7.88311 | 41767 ft | 482 kts | 35° |
| 2026-05-07 22:31 | 43.39976 | -7.85536 | 41572 ft | 482 kts | 35° |
| 2026-05-07 22:31 | 43.42642 | -7.82766 | 41695 ft | 479 kts | 35° |
| 2026-05-07 22:31 | 43.45294 | -7.80003 | 41895 ft | 477 kts | 35° |
| 2026-05-07 22:31 | 43.47946 | -7.77235 | 41733 ft | 481 kts | 35° |
| 2026-05-07 22:32 | 43.50617 | -7.74440 | 41527 ft | 481 kts | 35° |
| 2026-05-07 22:32 | 43.55923 | -7.68863 | 41830 ft | 476 kts | 35° |
| 2026-05-07 22:33 | 43.61199 | -7.63290 | 41551 ft | 481 kts | 35° |
| 2026-05-07 22:33 | 43.66486 | -7.57676 | 41929 ft | 475 kts | 36° |
| 2026-05-07 22:33 | 43.69110 | -7.54880 | 41626 ft | 477 kts | 36° |
| 2026-05-07 22:34 | 43.71740 | -7.52070 | 41334 ft | 479 kts | 36° |
| 2026-05-07 22:34 | 43.77033 | -7.46514 | 40616 ft | 484 kts | 33° |
| 2026-05-07 22:34 | 43.79865 | -7.43770 | 38886 ft | 505 kts | 31° |
| 2026-05-07 22:35 | 43.82755 | -7.41184 | 38976 ft | 472 kts | 28° |
| 2026-05-07 22:35 | 43.85432 | -7.38994 | 39601 ft | 445 kts | 27° |
| 2026-05-07 22:35 | 43.88147 | -7.36769 | 38735 ft | 462 kts | 29° |
| 2026-05-07 22:35 | 43.90940 | -7.34252 | 35942 ft | 503 kts | 32° |
| 2026-05-07 22:36 | 43.93745 | -7.31423 | 35682 ft | 484 kts | 35° |
| 2026-05-07 22:36 | 43.96371 | -7.28578 | 35330 ft | 474 kts | 36° |
| 2026-05-07 22:36 | 43.98954 | -7.25788 | 34735 ft | 470 kts | 34° |
| 2026-05-07 22:36 | 44.01601 | -7.23162 | 34240 ft | 464 kts | 32° |
| 2026-05-07 22:37 | 44.04245 | -7.20677 | 34006 ft | 452 kts | 30° |
| 2026-05-07 22:37 | 44.09521 | -7.16046 | 33892 ft | 453 kts | 30° |
| 2026-05-07 22:38 | 44.14850 | -7.11350 | 33894 ft | 453 kts | 30° |
| 2026-05-07 22:38 | 44.20152 | -7.06604 | 33909 ft | 453 kts | 31° |
| 2026-05-07 22:39 | 44.25461 | -7.01876 | 33915 ft | 452 kts | 30° |
| 2026-05-07 22:39 | 44.30771 | -6.97160 | 33901 ft | 452 kts | 30° |
| 2026-05-07 22:40 | 44.36066 | -6.92448 | 33903 ft | 451 kts | 30° |
| 2026-05-07 22:40 | 44.41360 | -6.87717 | 33908 ft | 451 kts | 31° |
| 2026-05-07 22:41 | 44.46623 | -6.82950 | 33920 ft | 450 kts | 31° |
| 2026-05-07 22:41 | 44.51902 | -6.78242 | 33916 ft | 449 kts | 30° |
| 2026-05-07 22:42 | 44.57160 | -6.73532 | 33920 ft | 447 kts | 31° |
| 2026-05-07 22:42 | 44.62398 | -6.68818 | 33923 ft | 447 kts | 31° |
| 2026-05-07 22:43 | 44.67625 | -6.64093 | 33926 ft | 446 kts | 31° |
| 2026-05-07 22:43 | 44.72838 | -6.59369 | 33929 ft | 446 kts | 31° |
| 2026-05-07 22:44 | 44.78051 | -6.54632 | 33929 ft | 445 kts | 31° |
| 2026-05-07 22:44 | 44.83251 | -6.49898 | 33933 ft | 445 kts | 31° |
| 2026-05-07 22:45 | 44.88425 | -6.45133 | 33932 ft | 444 kts | 31° |
| 2026-05-07 22:45 | 44.93606 | -6.40398 | 33935 ft | 443 kts | 31° |
| 2026-05-07 22:46 | 44.98790 | -6.35687 | 33932 ft | 443 kts | 31° |
| 2026-05-07 22:46 | 45.03965 | -6.30940 | 33934 ft | 443 kts | 31° |
| 2026-05-07 22:47 | 45.09129 | -6.26192 | 33940 ft | 442 kts | 31° |
| 2026-05-07 22:47 | 45.14281 | -6.21439 | 33944 ft | 442 kts | 31° |
| 2026-05-07 22:48 | 45.19431 | -6.16678 | 33947 ft | 442 kts | 31° |
| 2026-05-07 22:48 | 45.24574 | -6.11907 | 33947 ft | 442 kts | 31° |
| 2026-05-07 22:49 | 45.29718 | -6.07137 | 33946 ft | 441 kts | 31° |
| 2026-05-07 22:49 | 45.34854 | -6.02358 | 33951 ft | 441 kts | 31° |
| 2026-05-07 22:50 | 45.39985 | -5.97573 | 33955 ft | 441 kts | 32° |
| 2026-05-07 22:50 | 45.45108 | -5.92785 | 33957 ft | 440 kts | 31° |
| 2026-05-07 22:51 | 45.50229 | -5.87988 | 33950 ft | 440 kts | 32° |
| 2026-05-07 22:51 | 45.55348 | -5.83184 | 33957 ft | 440 kts | 32° |
| 2026-05-07 22:52 | 45.60453 | -5.78385 | 33959 ft | 439 kts | 32° |
| 2026-05-07 22:52 | 45.65555 | -5.73577 | 33960 ft | 439 kts | 32° |
| 2026-05-07 22:53 | 45.70646 | -5.68759 | 33961 ft | 439 kts | 32° |
| 2026-05-07 22:53 | 45.75732 | -5.63924 | 33959 ft | 439 kts | 32° |
| 2026-05-07 22:54 | 45.80788 | -5.59133 | 33962 ft | 438 kts | 32° |
| 2026-05-07 22:54 | 45.85870 | -5.54314 | 33964 ft | 438 kts | 32° |
| 2026-05-07 22:55 | 45.90943 | -5.49479 | 33966 ft | 438 kts | 32° |
| 2026-05-07 22:55 | 45.96013 | -5.44632 | 33963 ft | 437 kts | 32° |
| 2026-05-07 22:56 | 46.00257 | -5.40571 | 33966 ft | 437 kts | 32° |
| 2026-05-07 22:56 | 46.05281 | -5.35752 | 33965 ft | 437 kts | 32° |
| 2026-05-07 22:57 | 46.10330 | -5.30894 | 33970 ft | 436 kts | 32° |
| 2026-05-07 22:57 | 46.15376 | -5.26034 | 33972 ft | 436 kts | 32° |
| 2026-05-07 22:58 | 46.20418 | -5.21156 | 33973 ft | 436 kts | 32° |
| 2026-05-07 22:58 | 46.25459 | -5.16279 | 33976 ft | 436 kts | 32° |
| 2026-05-07 22:59 | 46.30492 | -5.11400 | 33979 ft | 435 kts | 32° |
| 2026-05-07 22:59 | 46.35523 | -5.06506 | 33976 ft | 435 kts | 33° |
| 2026-05-07 23:00 | 46.40545 | -5.01614 | 33983 ft | 435 kts | 33° |
| 2026-05-07 23:00 | 46.45565 | -4.96712 | 33985 ft | 435 kts | 33° |
| 2026-05-07 23:01 | 46.50580 | -4.91777 | 33989 ft | 435 kts | 33° |
| 2026-05-07 23:01 | 46.55597 | -4.86866 | 33988 ft | 435 kts | 33° |
| 2026-05-07 23:02 | 46.60612 | -4.81938 | 33989 ft | 435 kts | 33° |
| 2026-05-07 23:02 | 46.65599 | -4.76961 | 33994 ft | 434 kts | 33° |
| 2026-05-07 23:03 | 46.70590 | -4.72004 | 33997 ft | 434 kts | 33° |
| 2026-05-07 23:03 | 46.75606 | -4.67076 | 33992 ft | 434 kts | 32° |
| 2026-05-07 23:04 | 46.80617 | -4.62154 | 34000 ft | 434 kts | 33° |
| 2026-05-07 23:04 | 46.85614 | -4.57187 | 34001 ft | 434 kts | 33° |
| 2026-05-07 23:05 | 46.90602 | -4.52217 | 33998 ft | 434 kts | 33° |
| 2026-05-07 23:05 | 46.95556 | -4.47267 | 33998 ft | 434 kts | 33° |
| 2026-05-07 23:06 | 47.00547 | -4.42270 | 33997 ft | 434 kts | 33° |
| 2026-05-07 23:06 | 47.05527 | -4.37269 | 34004 ft | 434 kts | 33° |
| 2026-05-07 23:07 | 47.10508 | -4.32258 | 34004 ft | 434 kts | 33° |
| 2026-05-07 23:07 | 47.15491 | -4.27233 | 34010 ft | 434 kts | 33° |
| 2026-05-07 23:08 | 47.20473 | -4.22199 | 34007 ft | 434 kts | 33° |
| 2026-05-07 23:08 | 47.25449 | -4.17156 | 34007 ft | 434 kts | 33° |
| 2026-05-07 23:09 | 47.30418 | -4.12105 | 34004 ft | 434 kts | 33° |
| 2026-05-07 23:09 | 47.35396 | -4.07037 | 34002 ft | 434 kts | 33° |
| 2026-05-07 23:10 | 47.40363 | -4.01966 | 34002 ft | 434 kts | 33° |
| 2026-05-07 23:10 | 47.45302 | -3.96909 | 34005 ft | 435 kts | 33° |
| 2026-05-07 23:11 | 47.50306 | -3.91788 | 34011 ft | 435 kts | 33° |
| 2026-05-07 23:11 | 47.55247 | -3.86716 | 34012 ft | 435 kts | 33° |
| 2026-05-07 23:12 | 47.60213 | -3.81602 | 34014 ft | 435 kts | 33° |
| 2026-05-07 23:12 | 47.65184 | -3.76468 | 34012 ft | 435 kts | 33° |
| 2026-05-07 23:13 | 47.70150 | -3.71328 | 34017 ft | 435 kts | 33° |
| 2026-05-07 23:13 | 47.75117 | -3.66178 | 34020 ft | 436 kts | 33° |
| 2026-05-07 23:14 | 47.80092 | -3.61007 | 34017 ft | 436 kts | 33° |
| 2026-05-07 23:14 | 47.85060 | -3.55823 | 34024 ft | 436 kts | 33° |
| 2026-05-07 23:15 | 47.90028 | -3.50639 | 34020 ft | 437 kts | 33° |
| 2026-05-07 23:15 | 47.95008 | -3.45426 | 34025 ft | 437 kts | 33° |
| 2026-05-07 23:16 | 47.99983 | -3.40202 | 34026 ft | 437 kts | 33° |
| 2026-05-07 23:16 | 48.04962 | -3.34961 | 34026 ft | 438 kts | 33° |
| 2026-05-07 23:17 | 48.09937 | -3.29716 | 34028 ft | 438 kts | 33° |
| 2026-05-07 23:17 | 48.14916 | -3.24451 | 34033 ft | 438 kts | 33° |
| 2026-05-07 23:18 | 48.19895 | -3.19174 | 34036 ft | 439 kts | 33° |
| 2026-05-07 23:18 | 48.24877 | -3.13877 | 34034 ft | 439 kts | 33° |
| 2026-05-07 23:19 | 48.29858 | -3.08572 | 34030 ft | 439 kts | 33° |
| 2026-05-07 23:19 | 48.34836 | -3.03256 | 34029 ft | 439 kts | 33° |
| 2026-05-07 23:20 | 48.39824 | -2.97923 | 34027 ft | 440 kts | 33° |
| 2026-05-07 23:20 | 48.44773 | -2.92614 | 34028 ft | 440 kts | 33° |
| 2026-05-07 23:21 | 48.49762 | -2.87245 | 34023 ft | 441 kts | 33° |
| 2026-05-07 23:21 | 48.54747 | -2.81869 | 34028 ft | 441 kts | 33° |
| 2026-05-07 23:22 | 48.59736 | -2.76477 | 34031 ft | 441 kts | 33° |
| 2026-05-07 23:22 | 48.64721 | -2.71077 | 34023 ft | 441 kts | 33° |
| 2026-05-07 23:23 | 48.69691 | -2.65677 | 34030 ft | 439 kts | 33° |
| 2026-05-07 23:23 | 48.74649 | -2.60278 | 34036 ft | 439 kts | 34° |
| 2026-05-07 23:24 | 48.79561 | -2.54770 | 34022 ft | 440 kts | 36° |
| 2026-05-07 23:24 | 48.84415 | -2.49100 | 34030 ft | 440 kts | 36° |
| 2026-05-07 23:25 | 48.89264 | -2.43430 | 34028 ft | 440 kts | 36° |
| 2026-05-07 23:25 | 48.94103 | -2.37741 | 34015 ft | 440 kts | 36° |
| 2026-05-07 23:26 | 48.98957 | -2.32043 | 34019 ft | 440 kts | 36° |
| 2026-05-07 23:26 | 49.03802 | -2.26341 | 34024 ft | 440 kts | 36° |
| 2026-05-07 23:27 | 49.11127 | -2.17681 | 34015 ft | 449 kts | 36° |
| 2026-05-07 23:27 | 49.16060 | -2.11826 | 34022 ft | 449 kts | 36° |
| 2026-05-07 23:28 | 49.20965 | -2.06009 | 34019 ft | 449 kts | 36° |
| 2026-05-07 23:28 | 49.26276 | -2.01067 | 34026 ft | 447 kts | 27° |
| 2026-05-07 23:29 | 49.31727 | -1.96485 | 34024 ft | 447 kts | 27° |
| 2026-05-07 23:29 | 49.37169 | -1.91869 | 34033 ft | 446 kts | 27° |
| 2026-05-07 23:30 | 49.42604 | -1.87247 | 34035 ft | 446 kts | 27° |
| 2026-05-07 23:30 | 49.48035 | -1.82609 | 34041 ft | 447 kts | 28° |
| 2026-05-07 23:31 | 49.53466 | -1.77955 | 34049 ft | 447 kts | 28° |
| 2026-05-07 23:31 | 49.58912 | -1.73313 | 34053 ft | 447 kts | 26° |
| 2026-05-07 23:32 | 49.64688 | -1.69809 | 34051 ft | 447 kts | 18° |
| 2026-05-07 23:32 | 49.70555 | -1.66606 | 34054 ft | 447 kts | 18° |
| 2026-05-07 23:33 | 49.76404 | -1.63391 | 33842 ft | 442 kts | 18° |
| 2026-05-07 23:33 | 49.79318 | -1.61770 | 32782 ft | 449 kts | 18° |
| 2026-05-07 23:33 | 49.82267 | -1.60130 | 32022 ft | 450 kts | 19° |
| 2026-05-07 23:34 | 49.85200 | -1.58501 | 31495 ft | 445 kts | 19° |
| 2026-05-07 23:34 | 49.88094 | -1.56897 | 31026 ft | 439 kts | 19° |
| 2026-05-07 23:34 | 49.90954 | -1.55305 | 30558 ft | 433 kts | 19° |
| 2026-05-07 23:34 | 49.93767 | -1.53732 | 30098 ft | 428 kts | 19° |
| 2026-05-07 23:35 | 49.96553 | -1.52174 | 29537 ft | 423 kts | 19° |
| 2026-05-07 23:35 | 49.99296 | -1.50636 | 29011 ft | 418 kts | 18° |
| 2026-05-07 23:35 | 50.02044 | -1.49240 | 28528 ft | 412 kts | 17° |
| 2026-05-07 23:35 | 50.04758 | -1.47919 | 28065 ft | 406 kts | 16° |
| 2026-05-07 23:36 | 50.07431 | -1.46621 | 27607 ft | 400 kts | 16° |
| 2026-05-07 23:36 | 50.10082 | -1.45329 | 27143 ft | 396 kts | 17° |
| 2026-05-07 23:36 | 50.12659 | -1.44069 | 26687 ft | 391 kts | 17° |
| 2026-05-07 23:36 | 50.15269 | -1.42786 | 26225 ft | 387 kts | 17° |
| 2026-05-07 23:37 | 50.17788 | -1.41552 | 25790 ft | 383 kts | 17° |
| 2026-05-07 23:37 | 50.20316 | -1.40313 | 25371 ft | 378 kts | 17° |
| 2026-05-07 23:37 | 50.22851 | -1.39063 | 24944 ft | 376 kts | 17° |
| 2026-05-07 23:37 | 50.25308 | -1.37836 | 24504 ft | 376 kts | 17° |
| 2026-05-07 23:38 | 50.27831 | -1.36575 | 24066 ft | 375 kts | 17° |
| 2026-05-07 23:38 | 50.30282 | -1.35369 | 23640 ft | 374 kts | 17° |
| 2026-05-07 23:38 | 50.32762 | -1.34156 | 23147 ft | 373 kts | 17° |
| 2026-05-07 23:38 | 50.35229 | -1.32942 | 22678 ft | 371 kts | 17° |
| 2026-05-07 23:39 | 50.37688 | -1.31725 | 22225 ft | 369 kts | 17° |
| 2026-05-07 23:39 | 50.40135 | -1.30518 | 21780 ft | 367 kts | 17° |
| 2026-05-07 23:39 | 50.42559 | -1.29318 | 21338 ft | 365 kts | 17° |
| 2026-05-07 23:39 | 50.44975 | -1.28120 | 20899 ft | 364 kts | 17° |
| 2026-05-07 23:40 | 50.47385 | -1.26922 | 20477 ft | 362 kts | 17° |
| 2026-05-07 23:40 | 50.49755 | -1.25642 | 20074 ft | 360 kts | 24° |
| 2026-05-07 23:40 | 50.51854 | -1.23548 | 19683 ft | 357 kts | 39° |
| 2026-05-07 23:40 | 50.53756 | -1.21048 | 19291 ft | 356 kts | 41° |
| 2026-05-07 23:41 | 50.55636 | -1.18513 | 18894 ft | 356 kts | 41° |
| 2026-05-07 23:41 | 50.57523 | -1.15989 | 18508 ft | 356 kts | 40° |
| 2026-05-07 23:41 | 50.59418 | -1.13471 | 18089 ft | 356 kts | 40° |
| 2026-05-07 23:41 | 50.61312 | -1.10963 | 17685 ft | 356 kts | 40° |
| 2026-05-07 23:42 | 50.63202 | -1.08464 | 17289 ft | 353 kts | 40° |
| 2026-05-07 23:42 | 50.65073 | -1.05990 | 16881 ft | 348 kts | 40° |
| 2026-05-07 23:42 | 50.66756 | -1.03304 | 16504 ft | 342 kts | 50° |
| 2026-05-07 23:42 | 50.67755 | -1.01395 | 16257 ft | 339 kts | 51° |
| 2026-05-07 23:43 | 50.69223 | -0.98539 | 15925 ft | 333 kts | 51° |
| 2026-05-07 23:43 | 50.70674 | -0.95720 | 15589 ft | 328 kts | 51° |
| 2026-05-07 23:43 | 50.72111 | -0.92937 | 15262 ft | 327 kts | 51° |
| 2026-05-07 23:43 | 50.73544 | -0.90166 | 14931 ft | 326 kts | 51° |
| 2026-05-07 23:44 | 50.74981 | -0.87384 | 14578 ft | 327 kts | 51° |
| 2026-05-07 23:44 | 50.76420 | -0.84595 | 14235 ft | 327 kts | 51° |
| 2026-05-07 23:44 | 50.77859 | -0.81807 | 13889 ft | 328 kts | 51° |
| 2026-05-07 23:44 | 50.79298 | -0.79021 | 13517 ft | 328 kts | 51° |
| 2026-05-07 23:45 | 50.80691 | -0.76158 | 13134 ft | 328 kts | 59° |
| 2026-05-07 23:45 | 50.81509 | -0.72831 | 12758 ft | 325 kts | 79° |
| 2026-05-07 23:45 | 50.81924 | -0.69317 | 12363 ft | 325 kts | 82° |
| 2026-05-07 23:45 | 50.82298 | -0.65788 | 11949 ft | 327 kts | 82° |
| 2026-05-07 23:46 | 50.82686 | -0.62229 | 11537 ft | 327 kts | 81° |
| 2026-05-07 23:46 | 50.83081 | -0.58701 | 11133 ft | 324 kts | 81° |
| 2026-05-07 23:46 | 50.83367 | -0.56189 | 10834 ft | 322 kts | 81° |
| 2026-05-07 23:46 | 50.83763 | -0.52714 | 10432 ft | 320 kts | 80° |
| 2026-05-07 23:47 | 50.84160 | -0.49254 | 10047 ft | 318 kts | 80° |
| 2026-05-07 23:47 | 50.84553 | -0.45845 | 9764 ft | 311 kts | 80° |
| 2026-05-07 23:47 | 50.84932 | -0.42530 | 9512 ft | 303 kts | 80° |
| 2026-05-07 23:47 | 50.85308 | -0.39254 | 9114 ft | 302 kts | 80° |
| 2026-05-07 23:48 | 50.85678 | -0.36003 | 8749 ft | 298 kts | 80° |
| 2026-05-07 23:48 | 50.86043 | -0.32796 | 8409 ft | 295 kts | 80° |
| 2026-05-07 23:48 | 50.86402 | -0.29617 | 8047 ft | 292 kts | 80° |
| 2026-05-07 23:48 | 50.86758 | -0.26473 | 7704 ft | 288 kts | 79° |
| 2026-05-07 23:49 | 50.87108 | -0.23371 | 7358 ft | 285 kts | 79° |
| 2026-05-07 23:49 | 50.87455 | -0.20304 | 7101 ft | 279 kts | 79° |
| 2026-05-07 23:49 | 50.87789 | -0.17330 | 6944 ft | 269 kts | 79° |
| 2026-05-07 23:49 | 50.88110 | -0.14466 | 6816 ft | 258 kts | 79° |
| 2026-05-07 23:50 | 50.88415 | -0.11731 | 6695 ft | 247 kts | 79° |
| 2026-05-07 23:50 | 50.88708 | -0.09097 | 6554 ft | 240 kts | 79° |
| 2026-05-07 23:50 | 50.89146 | -0.06835 | 6362 ft | 237 kts | 59° |
| 2026-05-07 23:50 | 50.90214 | -0.04978 | 6108 ft | 235 kts | 33° |
| 2026-05-07 23:51 | 50.91725 | -0.04047 | 5852 ft | 234 kts | 7° |
| 2026-05-07 23:51 | 50.93334 | -0.04260 | 5631 ft | 235 kts | 342° |
| 2026-05-07 23:51 | 50.94781 | -0.05456 | 5405 ft | 236 kts | 327° |
| 2026-05-07 23:51 | 50.96108 | -0.07010 | 5166 ft | 237 kts | 316° |
| 2026-05-07 23:52 | 50.97036 | -0.09146 | 4928 ft | 237 kts | 291° |
| 2026-05-07 23:52 | 50.97460 | -0.11654 | 4697 ft | 236 kts | 281° |
| 2026-05-07 23:52 | 50.97792 | -0.14197 | 4454 ft | 235 kts | 281° |
| 2026-05-07 23:52 | 50.98140 | -0.16738 | 4215 ft | 235 kts | 282° |
| 2026-05-07 23:53 | 50.98496 | -0.19262 | 3984 ft | 235 kts | 282° |
| 2026-05-07 23:53 | 50.98889 | -0.21740 | 3791 ft | 235 kts | 284° |
| 2026-05-07 23:53 | 50.99331 | -0.24269 | 3627 ft | 235 kts | 285° |
| 2026-05-07 23:53 | 50.99773 | -0.26758 | 3468 ft | 234 kts | 284° |
| 2026-05-07 23:54 | 51.00204 | -0.29250 | 3302 ft | 234 kts | 284° |
| 2026-05-07 23:54 | 51.00631 | -0.31742 | 3144 ft | 234 kts | 284° |
| 2026-05-07 23:54 | 51.01059 | -0.34233 | 2996 ft | 234 kts | 284° |
| 2026-05-07 23:54 | 51.01465 | -0.36737 | 2964 ft | 234 kts | 282° |
| 2026-05-07 23:55 | 51.01829 | -0.39253 | 2975 ft | 234 kts | 282° |
| 2026-05-07 23:55 | 51.02189 | -0.41772 | 2987 ft | 234 kts | 282° |
| 2026-05-07 23:55 | 51.02552 | -0.44298 | 2995 ft | 234 kts | 282° |
| 2026-05-07 23:55 | 51.02915 | -0.46820 | 2997 ft | 234 kts | 282° |
| 2026-05-07 23:56 | 51.03277 | -0.49340 | 2993 ft | 234 kts | 282° |
| 2026-05-07 23:56 | 51.03724 | -0.51827 | 2989 ft | 235 kts | 296° |
| 2026-05-07 23:56 | 51.04742 | -0.53843 | 2987 ft | 234 kts | 324° |
| 2026-05-07 23:56 | 51.06122 | -0.54876 | 2970 ft | 214 kts | 350° |
| 2026-05-07 23:57 | 51.07594 | -0.54929 | 2979 ft | 209 kts | 14° |
| 2026-05-07 23:57 | 51.08914 | -0.54125 | 2988 ft | 205 kts | 36° |
| 2026-05-07 23:57 | 51.09930 | -0.52554 | 2986 ft | 200 kts | 62° |
| 2026-05-07 23:57 | 51.10463 | -0.50534 | 2997 ft | 198 kts | 76° |
| 2026-05-07 23:58 | 51.10732 | -0.48395 | 2998 ft | 197 kts | 81° |
| 2026-05-07 23:58 | 51.11023 | -0.46256 | 2996 ft | 198 kts | 80° |
| 2026-05-07 23:58 | 51.11313 | -0.44162 | 2988 ft | 189 kts | 79° |
| 2026-05-07 23:58 | 51.11583 | -0.42220 | 2977 ft | 169 kts | 80° |
| 2026-05-07 23:59 | 51.11823 | -0.40505 | 2819 ft | 150 kts | 80° |
| 2026-05-07 23:59 | 51.12032 | -0.39003 | 2610 ft | 134 kts | 81° |
| 2026-05-07 23:59 | 51.12232 | -0.37566 | 2423 ft | 133 kts | 81° |
| 2026-05-07 23:59 | 51.12432 | -0.36131 | 2238 ft | 133 kts | 81° |
| 2026-05-08 00:00 | 51.12632 | -0.34699 | 2060 ft | 132 kts | 81° |
| 2026-05-08 00:00 | 51.12831 | -0.33269 | 1880 ft | 132 kts | 81° |
| 2026-05-08 00:00 | 51.13029 | -0.31846 | 1700 ft | 132 kts | 81° |
| 2026-05-08 00:00 | 51.13228 | -0.30421 | 1509 ft | 132 kts | 81° |
| 2026-05-08 00:01 | 51.13426 | -0.29002 | 1334 ft | 131 kts | 80° |
| 2026-05-08 00:01 | 51.13628 | -0.27581 | 1154 ft | 131 kts | 79° |
| 2026-05-08 00:01 | 51.13827 | -0.26169 | 943 ft | 131 kts | 79° |
| 2026-05-08 00:01 | 51.14028 | -0.24752 | 757 ft | 131 kts | 79° |
| 2026-05-08 00:02 | 51.14212 | -0.23333 | 589 ft | 131 kts | 78° |
| 2026-05-08 00:02 | 51.14410 | -0.21923 | 409 ft | 130 kts | 78° |
| 2026-05-08 00:02 | 51.14608 | -0.20520 | 226 ft | 130 kts | 78° |
| 2026-05-08 00:02 | 51.14811 | -0.19088 | 242 ft | 153 kts | 77° |
| 2026-05-08 00:03 | 51.15036 | -0.17409 | 1110 ft | 156 kts | 78° |
| 2026-05-08 00:03 | 51.15270 | -0.15717 | 1980 ft | 158 kts | 81° |
| 2026-05-08 00:03 | 51.15324 | -0.13928 | 2563 ft | 173 kts | 109° |
| 2026-05-08 00:03 | 51.14513 | -0.12354 | 2868 ft | 207 kts | 148° |
| 2026-05-08 00:04 | 51.13067 | -0.11883 | 2980 ft | 220 kts | 187° |
| 2026-05-08 00:04 | 51.11575 | -0.12472 | 3020 ft | 222 kts | 195° |
| 2026-05-08 00:04 | 51.10262 | -0.13746 | 3013 ft | 226 kts | 221° |
| 2026-05-08 00:04 | 51.09177 | -0.15566 | 3006 ft | 226 kts | 225° |
| 2026-05-08 00:05 | 51.08286 | -0.17146 | 3000 ft | 226 kts | 226° |
| 2026-05-08 00:05 | 51.07749 | -0.18106 | 3003 ft | 226 kts | 226° |
| 2026-05-08 00:05 | 51.06705 | -0.19968 | 2998 ft | 226 kts | 226° |
| 2026-05-08 00:06 | 51.05784 | -0.21989 | 2983 ft | 228 kts | 246° |
| 2026-05-08 00:06 | 51.05372 | -0.24434 | 2996 ft | 230 kts | 257° |
| 2026-05-08 00:06 | 51.05076 | -0.26943 | 2998 ft | 231 kts | 258° |
| 2026-05-08 00:06 | 51.04790 | -0.29452 | 3000 ft | 231 kts | 258° |
| 2026-05-08 00:07 | 51.04504 | -0.31961 | 2994 ft | 231 kts | 258° |
| 2026-05-08 00:07 | 51.04219 | -0.34463 | 2994 ft | 231 kts | 258° |
| 2026-05-08 00:07 | 51.03933 | -0.36964 | 2990 ft | 227 kts | 258° |
| 2026-05-08 00:07 | 51.03680 | -0.39346 | 2969 ft | 212 kts | 265° |
| 2026-05-08 00:08 | 51.03970 | -0.41606 | 2958 ft | 212 kts | 299° |
| 2026-05-08 00:08 | 51.04961 | -0.43314 | 2983 ft | 213 kts | 324° |
| 2026-05-08 00:08 | 51.06283 | -0.44288 | 2989 ft | 210 kts | 354° |
| 2026-05-08 00:08 | 51.07723 | -0.44176 | 2996 ft | 208 kts | 13° |
| 2026-05-08 00:09 | 51.09141 | -0.43706 | 3003 ft | 208 kts | 14° |
| 2026-05-08 00:09 | 51.10537 | -0.43231 | 2996 ft | 196 kts | 18° |
| 2026-05-08 00:09 | 51.11567 | -0.42170 | 2975 ft | 166 kts | 60° |
| 2026-05-08 00:09 | 51.11908 | -0.40580 | 2863 ft | 143 kts | 81° |
| 2026-05-08 00:10 | 51.12071 | -0.39082 | 2671 ft | 133 kts | 83° |
| 2026-05-08 00:10 | 51.12235 | -0.37655 | 2485 ft | 133 kts | 82° |
| 2026-05-08 00:10 | 51.12424 | -0.36217 | 2280 ft | 132 kts | 81° |
| 2026-05-08 00:10 | 51.12620 | -0.34787 | 2094 ft | 132 kts | 81° |
| 2026-05-08 00:11 | 51.12818 | -0.33362 | 1907 ft | 132 kts | 81° |
| 2026-05-08 00:11 | 51.13016 | -0.31941 | 1721 ft | 131 kts | 81° |
| 2026-05-08 00:11 | 51.13214 | -0.30520 | 1523 ft | 131 kts | 81° |
| 2026-05-08 00:11 | 51.13412 | -0.29104 | 1351 ft | 131 kts | 80° |
| 2026-05-08 00:12 | 51.13609 | -0.27690 | 1162 ft | 131 kts | 80° |
| 2026-05-08 00:12 | 51.13808 | -0.26278 | 964 ft | 131 kts | 78° |
| 2026-05-08 00:12 | 51.14017 | -0.24871 | 772 ft | 131 kts | 78° |
| 2026-05-08 00:12 | 51.14201 | -0.23454 | 584 ft | 130 kts | 78° |
| 2026-05-08 00:13 | 51.14393 | -0.22045 | 421 ft | 130 kts | 78° |
| 2026-05-08 00:13 | 51.14593 | -0.20645 | 243 ft | 130 kts | 78° |
| 2026-05-08 00:13 | 51.14770 | -0.19360 | 217 ft | 93 kts | 77° |
| 2026-05-08 00:13 | 51.14865 | -0.18676 | 211 ft | 33 kts | 70° |
| 2026-05-08 00:14 | 51.14987 | -0.18417 | 215 ft | 19 kts | 50° |
| 2026-05-08 00:14 | 51.15077 | -0.18252 | 216 ft | 20 kts | 49° |
| 2026-05-08 00:14 | 51.15177 | -0.18198 | 210 ft | 12 kts | 13° |
| 2026-05-08 00:14 | 51.15216 | -0.18070 | 210 ft | 15 kts | 76° |
| 2026-05-08 00:15 | 51.15241 | -0.17902 | 213 ft | 17 kts | 76° |
| 2026-05-08 00:15 | 51.15269 | -0.17713 | 210 ft | 18 kts | 78° |
| 2026-05-08 00:15 | 51.15294 | -0.17503 | 213 ft | 20 kts | 79° |
| 2026-05-08 00:15 | 51.15340 | -0.17372 | 214 ft | 15 kts | 33° |
| 2026-05-08 00:16 | 51.15376 | -0.17260 | 215 ft | 7 kts | 73° |
| 2026-05-08 00:16 | 51.15392 | -0.17178 | 213 ft | 9 kts | 71° |
| 2026-05-08 00:16 | 51.15425 | -0.17083 | 214 ft | 11 kts | 27° |
| 2026-05-08 00:16 | 51.15465 | -0.17089 | 215 ft | 7 kts | 348° |
| 2026-05-08 00:17 | 51.15468 | -0.17090 | 214 ft | 1 kts | 340° |
| 2026-05-08 00:17 | 51.15470 | -0.17091 | 213 ft | 0 kts | 351° |
| 2026-05-08 00:21 | 51.12841 | -0.33197 | 1889 ft | 132 kts | 81° |
| 2026-05-08 00:21 | 51.14210 | -0.23389 | 582 ft | 130 kts | 78° |
| 2026-05-08 00:22 | 51.14402 | -0.21977 | 412 ft | 130 kts | 78° |
| 2026-05-08 00:22 | 51.14603 | -0.20576 | 239 ft | 130 kts | 78° |
| 2026-05-08 00:22 | 51.14702 | -0.19862 | 216 ft | 118 kts | 78° |
| 2026-05-08 00:22 | 51.14327 | -0.22550 | 480 ft | 130 kts | 78° |
| 2026-05-08 00:23 | 51.14522 | -0.21143 | 305 ft | 130 kts | 78° |
| 2026-05-08 00:23 | 51.14714 | -0.19769 | 217 ft | 118 kts | 78° |
| 2026-05-08 00:23 | 51.14839 | -0.18846 | 212 ft | 55 kts | 77° |
| 2026-05-08 00:23 | 51.14943 | -0.18489 | 215 ft | 32 kts | 49° |
| 2026-05-08 00:24 | 51.15044 | -0.18312 | 211 ft | 19 kts | 49° |
| 2026-05-08 00:24 | 51.15059 | -0.18284 | 210 ft | 0 kts | 49° |
| 2026-05-08 00:24 | 51.14013 | -0.24900 | 778 ft | 131 kts | 78° |
| 2026-05-08 00:24 | 51.14063 | -0.24529 | 731 ft | 131 kts | 79° |